Time;durP1;ratioP1;P1;durP2;ratioP2;P2;SDS_P1;SDS_P2;PMS_P1;PMS_P2;Temp;Humidity;BMP_temperature;BMP_pressure;BME280_temperature;BME280_humidity;BME280_pressure;Samples;Min_cycle;Max_cycle;Signal;HPM_P1;HPM_P2
2024/01/07 00:02:09;;;;;;;;;;;;;;;22.78;32.20;101746.34;5029983;28;19917;-76
2024/01/07 00:04:34;;;;;;;;;;;;;;;22.72;32.39;101750.59;5029295;28;19920;-76
2024/01/07 00:06:59;;;;;;;;;;;;;;;22.66;32.52;101749.44;5043304;28;19914;-77
2024/01/07 00:09:24;;;;;;;;;;;;;;;22.64;32.33;101756.03;5041664;28;19917;-76
2024/01/07 00:11:50;;;;;;;;;;;;;;;22.59;32.49;101751.13;5052076;28;19909;-77
2024/01/07 00:14:16;;;;;;;;;;;;;;;22.55;32.60;101757.91;5048093;28;19976;-76
2024/01/07 00:16:41;;;;;;;;;;;;;;;22.51;32.65;101761.97;5039672;28;19913;-76
2024/01/07 00:19:07;;;;;;;;;;;;;;;22.48;32.77;101767.78;5048956;28;19999;-76
2024/01/07 00:21:32;;;;;;;;;;;;;;;22.46;32.75;101769.78;5036814;28;19931;-76
2024/01/07 00:23:57;;;;;;;;;;;;;;;22.43;32.84;101768.28;5047057;28;19918;-76
2024/01/07 00:26:22;;;;;;;;;;;;;;;22.40;32.99;101770.50;5045622;28;20357;-76
2024/01/07 00:28:47;;;;;;;;;;;;;;;22.34;32.76;101771.16;5048982;28;20415;-76
2024/01/07 00:31:13;;;;;;;;;;;;;;;22.30;33.07;101773.38;5046274;28;19948;-77
2024/01/07 00:33:38;;;;;;;;;;;;;;;22.26;32.95;101772.03;5050165;28;19917;-77
2024/01/07 00:36:03;;;;;;;;;;;;;;;22.24;32.81;101773.19;5040301;28;19935;-76
2024/01/07 00:38:28;;;;;;;;;;;;;;;22.20;33.07;101776.25;5041326;28;19971;-77
2024/01/07 00:40:53;;;;;;;;;;;;;;;22.17;33.11;101775.72;5036508;28;20433;-76
2024/01/07 00:43:19;;;;;;;;;;;;;;;22.14;32.91;101779.63;5042797;28;19917;-76
2024/01/07 00:45:44;;;;;;;;;;;;;;;22.11;33.04;101785.34;5047582;28;19920;-76
2024/01/07 00:48:09;;;;;;;;;;;;;;;22.09;32.98;101781.97;5050418;28;19990;-76
2024/01/07 00:50:34;;;;;;;;;;;;;;;22.06;33.17;101782.31;5048563;28;19917;-77
2024/01/07 00:52:59;;;;;;;;;;;;;;;22.02;33.41;101783.66;5041102;28;19975;-76
2024/01/07 00:55:25;;;;;;;;;;;;;;;22.00;33.47;101785.66;5039638;28;19913;-76
2024/01/07 00:57:50;;;;;;;;;;;;;;;;;;5037677;28;19924;-77
2024/01/07 01:00:16;;;;;;;;;;;;;;;21.95;33.37;101793.47;5045909;28;19941;-76
2024/01/07 01:02:41;;;;;;;;;;;;;;;21.92;33.51;101796.53;5050674;28;19920;-76
2024/01/07 01:05:06;;;;;;;;;;;;;;;21.89;33.65;101799.56;5051793;28;19948;-76
2024/01/07 01:07:31;;;;;;;;;;;;;;;21.86;33.48;101808.84;5044127;28;19966;-77
2024/01/07 01:09:57;;;;;;;;;;;;;;;21.83;33.34;101806.47;5038002;28;19955;-77
2024/01/07 01:12:22;;;;;;;;;;;;;;;21.82;33.71;101809.34;5035117;28;19965;-76
2024/01/07 01:14:47;;;;;;;;;;;;;;;21.81;33.56;101815.78;5043430;28;19920;-77
2024/01/07 01:17:13;;;;;;;;;;;;;;;21.78;33.72;101814.25;5052220;28;20655;-76
2024/01/07 01:19:38;;;;;;;;;;;;;;;21.76;33.58;101821.69;5052358;28;19924;-75
2024/01/07 01:22:03;;;;;;;;;;;;;;;21.74;33.51;101826.41;5046784;28;19968;-76
2024/01/07 01:24:28;;;;;;;;;;;;;;;21.71;33.91;101827.59;5038852;28;19930;-76
2024/01/07 01:26:53;;;;;;;;;;;;;;;21.67;33.82;101822.69;5037886;28;19920;-76
2024/01/07 01:29:18;;;;;;;;;;;;;;;21.67;33.52;101828.94;5041197;28;19917;-76
2024/01/07 01:31:44;;;;;;;;;;;;;;;21.64;33.75;101831.97;5050866;28;20491;-76
2024/01/07 01:34:09;;;;;;;;;;;;;;;21.62;33.94;101834.00;5053500;28;19917;-76
2024/01/07 01:36:35;;;;;;;;;;;;;;;21.61;33.95;101836.88;5052367;28;19920;-74
2024/01/07 01:39:00;;;;;;;;;;;;;;;21.59;33.92;101842.44;5043418;28;19917;-75
2024/01/07 01:41:25;;;;;;;;;;;;;;;21.57;33.81;101839.03;5033159;28;19917;-76
2024/01/07 01:43:50;;;;;;;;;;;;;;;21.54;33.84;101847.50;5034601;28;20694;-76
2024/01/07 01:46:15;;;;;;;;;;;;;;;21.53;34.03;101861.19;5045485;28;19921;-76
2024/01/07 01:48:41;;;;;;;;;;;;;;;21.51;34.05;101855.09;5048197;28;19913;-76
2024/01/07 01:51:06;;;;;;;;;;;;;;;21.49;33.89;101863.38;5052602;28;19967;-76
2024/01/07 01:53:32;;;;;;;;;;;;;;;21.48;33.84;101860.81;5046594;28;19920;-76
2024/01/07 01:55:57;;;;;;;;;;;;;;;21.46;33.76;101866.41;5037326;28;19952;-76
2024/01/07 01:58:23;;;;;;;;;;;;;;;21.44;34.09;101876.53;5045223;28;19916;-76
2024/01/07 02:00:48;;;;;;;;;;;;;;;21.41;34.05;101874.19;5040923;28;19924;-76
2024/01/07 02:03:13;;;;;;;;;;;;;;;21.40;34.17;101877.88;5042511;28;19967;-75
2024/01/07 02:05:38;;;;;;;;;;;;;;;21.39;34.16;101878.88;5046096;28;19917;-76
2024/01/07 02:08:04;;;;;;;;;;;;;;;21.37;34.00;101879.06;5047795;28;19916;-76
2024/01/07 02:10:34;;;;;;;;;;;;;;;21.37;34.21;101872.81;5041691;28;19928;-76
2024/01/07 02:12:59;;;;;;;;;;;;;;;21.35;33.99;101874.81;5047944;28;19953;-76
2024/01/07 02:15:24;;;;;;;;;;;;;;;21.35;33.91;101889.19;5042957;28;20003;-76
2024/01/07 02:17:49;;;;;;;;;;;;;;;21.34;34.17;101892.91;5038372;28;19936;-76
2024/01/07 02:20:14;;;;;;;;;;;;;;;21.34;33.99;101889.34;5036402;28;20012;-76
2024/01/07 02:22:40;;;;;;;;;;;;;;;21.33;34.05;101896.63;5041864;28;19917;-76
2024/01/07 02:25:06;;;;;;;;;;;;;;;21.31;33.96;101897.75;5043755;28;20351;-76
2024/01/07 02:27:31;;;;;;;;;;;;;;;21.29;34.00;101895.22;5047256;28;19914;-75
2024/01/07 02:29:57;;;;;;;;;;;;;;;21.28;34.25;101898.06;5047778;28;19913;-76
2024/01/07 02:32:22;;;;;;;;;;;;;;;21.27;34.28;101893.66;5038246;28;19917;-76
2024/01/07 02:34:47;;;;;;;;;;;;;;;21.27;33.95;101890.97;5035466;28;19913;-76
2024/01/07 02:37:12;;;;;;;;;;;;;;;21.27;34.10;101890.97;5038722;28;19924;-76
2024/01/07 02:39:37;;;;;;;;;;;;;;;21.26;34.23;101900.94;5040729;28;19936;-76
2024/01/07 02:42:03;;;;;;;;;;;;;;;21.25;34.36;101901.94;5046611;28;19941;-76
2024/01/07 02:44:28;;;;;;;;;;;;;;;21.25;34.29;101899.25;5048838;28;19914;-76
2024/01/07 02:46:53;;;;;;;;;;;;;;;21.23;34.29;101909.34;5041933;28;19951;-76
2024/01/07 02:49:18;;;;;;;;;;;;;;;21.24;34.11;101905.66;5036813;28;20351;-76
2024/01/07 02:51:45;;;;;;;;;;;;;;;21.23;34.02;101912.06;5033080;28;19918;-75
2024/01/07 02:54:10;;;;;;;;;;;;;;;21.22;34.29;101910.38;5037163;28;19913;-76
2024/01/07 02:56:36;;;;;;;;;;;;;;;21.21;34.25;101914.94;5047690;28;20618;-76
2024/01/07 02:59:01;;;;;;;;;;;;;;;21.20;34.31;101920.50;5049237;28;20324;-76
2024/01/07 03:01:26;;;;;;;;;;;;;;;21.20;34.25;101917.81;5046763;28;19917;-76
2024/01/07 03:03:51;;;;;;;;;;;;;;;21.20;34.29;101928.63;5036042;28;19924;-76
2024/01/07 03:06:16;;;;;;;;;;;;;;;21.20;34.28;101928.63;5037071;28;19935;-76
2024/01/07 03:08:42;;;;;;;;;;;;;;;21.19;34.07;101930.47;5033548;28;19920;-75
2024/01/07 03:11:07;;;;;;;;;;;;;;;21.18;34.26;101930.63;5043828;28;19920;-75
2024/01/07 03:13:33;;;;;;;;;;;;;;;21.17;34.17;101932.50;5049932;28;20368;-76
2024/01/07 03:15:58;;;;;;;;;;;;;;;21.18;34.29;101941.44;5049784;28;19917;-76
2024/01/07 03:18:23;;;;;;;;;;;;;;;21.18;34.33;101949.56;5041068;28;20444;-76
2024/01/07 03:20:49;;;;;;;;;;;;;;;21.18;34.24;101946.84;5033492;28;19927;-76
2024/01/07 03:23:14;;;;;;;;;;;;;;;21.17;34.18;101947.88;5044889;28;19920;-76
2024/01/07 03:25:39;;;;;;;;;;;;;;;21.17;33.95;101947.88;5044527;28;19935;-76
2024/01/07 03:28:04;;;;;;;;;;;;;;;21.18;34.04;101946.84;5048845;28;19944;-76
2024/01/07 03:30:29;;;;;;;;;;;;;;;21.15;34.00;101948.03;5051607;28;19916;-76
2024/01/07 03:32:55;;;;;;;;;;;;;;;21.16;34.18;101940.78;5047859;28;19923;-76
2024/01/07 03:35:21;;;;;;;;;;;;;;;21.16;34.17;101949.72;5037328;28;19918;-76
2024/01/07 03:37:46;;;;;;;;;;;;;;;21.15;33.90;101950.75;5035835;28;19913;-76
2024/01/07 03:40:12;;;;;;;;;;;;;;;21.17;34.18;101953.28;5052597;28;19924;-76
2024/01/07 03:42:37;;;;;;;;;;;;;;;21.16;34.14;101949.72;5042987;28;19924;-75
2024/01/07 03:45:02;;;;;;;;;;;;;;;21.16;34.22;101957.00;5045811;28;20003;-76
2024/01/07 03:47:27;;;;;;;;;;;;;;;21.16;34.03;101952.44;5041322;28;20014;-76
2024/01/07 03:49:53;;;;;;;;;;;;;;;21.17;34.15;101958.69;5042157;28;19925;-75
2024/01/07 03:52:18;;;;;;;;;;;;;;;21.18;34.00;101963.94;5037857;28;20004;-75
2024/01/07 03:54:43;;;;;;;;;;;;;;;21.19;34.04;101967.47;5044468;28;19914;-76
2024/01/07 03:57:08;;;;;;;;;;;;;;;21.19;33.81;101965.63;5049326;28;19917;-76
2024/01/07 03:59:33;;;;;;;;;;;;;;;21.20;33.97;101967.34;5038804;28;19923;-76
2024/01/07 04:01:58;;;;;;;;;;;;;;;21.22;34.18;101964.47;5042260;28;19917;-76
2024/01/07 04:04:24;;;;;;;;;;;;;;;21.21;33.95;101970.88;5043265;28;19923;-76
2024/01/07 04:06:49;;;;;;;;;;;;;;;21.20;33.92;101975.44;5043388;28;19917;-76
2024/01/07 04:09:14;;;;;;;;;;;;;;;21.19;33.95;101981.00;5044288;28;19928;-76
2024/01/07 04:11:42;;;;;;;;;;;;;;;21.19;33.94;101986.41;5040460;28;19925;-76
2024/01/07 04:14:08;;;;;;;;;;;;;;;21.21;33.74;101985.25;5037917;28;19949;-76
2024/01/07 04:16:33;;;;;;;;;;;;;;;21.21;33.80;101979.00;5036286;28;19970;-76
2024/01/07 04:18:58;;;;;;;;;;;;;;;21.20;34.00;101980.03;5040238;28;19913;-76
2024/01/07 04:21:23;;;;;;;;;;;;;;;21.20;33.67;101982.72;5042679;28;19921;-76
2024/01/07 04:23:48;;;;;;;;;;;;;;;21.20;34.01;101988.13;5046448;28;20018;-76
2024/01/07 04:26:14;;;;;;;;;;;;;;;21.19;33.86;101983.72;5041948;28;19947;-76
2024/01/07 04:28:41;;;;;;;;;;;;;;;21.19;33.73;101989.13;5038774;28;19917;-76
2024/01/07 04:31:06;;;;;;;;;;;;;;;21.17;33.95;101993.84;5038148;28;19913;-76
2024/01/07 04:33:31;;;;;;;;;;;;;;;21.16;33.88;101994.84;5033292;28;19938;-76
2024/01/07 04:35:58;;;;;;;;;;;;;;;21.15;33.96;101999.44;5042462;28;19909;-76
2024/01/07 04:38:23;;;;;;;;;;;;;;;21.16;33.95;101998.41;5044014;28;19962;-76
2024/01/07 04:40:48;;;;;;;;;;;;;;;20.63;33.79;101918.22;5047040;28;19917;-75
2024/01/07 04:43:14;;;;;;;;;;;;;;;21.15;33.63;102012.06;5038726;28;19944;-76
2024/01/07 04:45:39;;;;;;;;;;;;;;;21.16;33.99;102011.09;5044139;28;19917;-76
2024/01/07 04:48:04;;;;;;;;;;;;;;;21.16;33.83;102011.09;5033081;28;20016;-76
2024/01/07 04:50:29;;;;;;;;;;;;;;;21.16;33.97;102013.78;5042016;28;19921;-76
2024/01/07 04:52:54;;;;;;;;;;;;;;;21.16;33.96;102014.63;5043724;28;19920;-76
2024/01/07 04:55:20;;;;;;;;;;;;;;;21.16;33.87;102022.75;5050643;28;19912;-76
2024/01/07 04:57:45;;;;;;;;;;;;;;;21.15;33.63;102029.16;5046814;28;19917;-76
2024/01/07 05:00:10;;;;;;;;;;;;;;;21.16;33.83;102027.31;5036568;28;20004;-75
2024/01/07 05:02:35;;;;;;;;;;;;;;;21.17;33.81;102029.84;5046592;28;19947;-76
2024/01/07 05:05:01;;;;;;;;;;;;;;;21.16;33.59;102038.13;5053256;28;19913;-76
2024/01/07 05:07:26;;;;;;;;;;;;;;;21.17;33.86;102037.97;5047776;28;19924;-75
2024/01/07 05:09:51;;;;;;;;;;;;;;;21.16;33.58;102041.69;5050378;28;19912;-76
2024/01/07 05:12:16;;;;;;;;;;;;;;;21.16;33.82;102036.28;5048083;28;20016;-76
2024/01/07 05:14:42;;;;;;;;;;;;;;;21.18;33.46;102052.34;5041817;28;19963;-76
2024/01/07 05:17:08;;;;;;;;;;;;;;;21.17;33.81;102051.50;5039785;28;19919;-76
2024/01/07 05:19:33;;;;;;;;;;;;;;;21.17;33.75;102051.50;5060489;28;19913;-76
2024/01/07 05:21:58;;;;;;;;;;;;;;;21.17;33.38;102056.06;5044350;28;19946;-76
2024/01/07 05:24:23;;;;;;;;;;;;;;;21.15;33.46;102064.34;5047945;28;19972;-75
2024/01/07 05:26:49;;;;;;;;;;;;;;;21.15;33.72;102067.03;5051826;28;20404;-76
2024/01/07 05:29:14;;;;;;;;;;;;;;;21.16;33.66;102059.78;5045457;28;19917;-76
2024/01/07 05:31:39;;;;;;;;;;;;;;;21.18;33.43;102068.56;5039107;28;19928;-75
2024/01/07 05:34:04;;;;;;;;;;;;;;;21.19;33.64;102075.66;5049634;28;19937;-76
2024/01/07 05:36:30;;;;;;;;;;;;;;;21.18;33.73;102082.09;5058172;28;19927;-76
2024/01/07 05:38:55;;;;;;;;;;;;;;;21.19;33.71;102081.06;5044992;28;19969;-75
2024/01/07 05:41:20;;;;;;;;;;;;;;;21.20;33.75;102088.22;5044980;28;19917;-75
2024/01/07 05:43:45;;;;;;;;;;;;;;;21.21;33.50;102087.19;5047993;28;19967;-76
2024/01/07 05:46:12;;;;;;;;;;;;;;;21.22;33.35;102094.28;5041803;28;20078;-76
2024/01/07 05:48:49;;;;;;;;;;;;;;;21.23;33.34;102098.69;5044384;28;20000;-76
2024/01/07 05:51:14;;;;;;;;;;;;;;;21.25;33.59;102114.78;5054776;28;19937;-76
2024/01/07 05:53:40;;;;;;;;;;;;;;;21.25;33.59;102107.50;5048431;28;19921;-76
2024/01/07 05:56:05;;;;;;;;;;;;;;;21.26;33.62;102111.91;5040226;28;19912;-76
2024/01/07 05:58:30;;;;;;;;;;;;;;;21.26;33.41;102108.38;5040435;28;19917;-76
2024/01/07 06:00:56;;;;;;;;;;;;;;;21.26;33.18;102120.03;5042037;28;20399;-76
2024/01/07 06:03:21;;;;;;;;;;;;;;;21.28;33.16;102127.97;5043531;28;20629;-76
2024/01/07 06:05:46;;;;;;;;;;;;;;;21.27;33.41;102129.84;5042523;28;19993;-76
2024/01/07 06:08:12;;;;;;;;;;;;;;;21.28;33.20;102134.25;5039463;28;19913;-77
2024/01/07 06:10:38;;;;;;;;;;;;;;;21.29;33.42;102137.81;5038126;28;19921;-75
2024/01/07 06:13:03;;;;;;;;;;;;;;;21.28;33.34;102145.09;5038916;28;19917;-76
2024/01/07 06:15:28;;;;;;;;;;;;;;;21.27;33.22;102146.06;5036540;28;19985;-76
2024/01/07 06:17:53;;;;;;;;;;;;;;;21.27;33.41;102142.50;5043398;28;19963;-77
2024/01/07 06:20:19;;;;;;;;;;;;;;;21.28;33.27;102147.78;5045090;28;19992;-75
2024/01/07 06:22:44;;;;;;;;;;;;;;;21.29;33.36;102154.03;5043090;28;20377;-76
2024/01/07 06:25:10;;;;;;;;;;;;;;;21.29;33.30;102160.31;5048714;28;19925;-76
2024/01/07 06:27:35;;;;;;;;;;;;;;;21.29;33.32;102164.88;5037548;28;19980;-76
2024/01/07 06:30:00;;;;;;;;;;;;;;;21.29;33.11;102165.72;5038300;28;20304;-75
2024/01/07 06:32:25;;;;;;;;;;;;;;;21.29;33.01;102171.13;5042514;28;19940;-76
2024/01/07 06:34:51;;;;;;;;;;;;;;;21.30;33.14;102169.25;5040156;28;19913;-76
2024/01/07 06:37:17;;;;;;;;;;;;;;;21.30;33.36;102171.97;5041958;28;19914;-76
2024/01/07 06:39:42;;;;;;;;;;;;;;;21.30;33.35;102175.53;5039387;28;19917;-76
2024/01/07 06:42:07;;;;;;;;;;;;;;;21.31;33.28;102184.47;5045486;28;20293;-76
2024/01/07 06:44:32;;;;;;;;;;;;;;;21.30;33.09;102186.34;5041085;28;19914;-76
2024/01/07 06:46:57;;;;;;;;;;;;;;;21.31;33.23;102185.34;5043565;28;19941;-76
2024/01/07 06:49:22;;;;;;;;;;;;;;;21.34;33.29;102198.59;5044358;28;19963;-76
2024/01/07 06:51:48;;;;;;;;;;;;;;;21.34;33.15;102195.03;5048590;28;19919;-76
2024/01/07 06:54:13;;;;;;;;;;;;;;;21.35;32.90;102203.00;5039992;28;19917;-76
2024/01/07 06:56:38;;;;;;;;;;;;;;;21.35;32.81;102202.16;5038716;28;19920;-76
2024/01/07 06:59:03;;;;;;;;;;;;;;;21.37;32.77;102211.81;5059122;28;19923;-74
2024/01/07 07:01:28;;;;;;;;;;;;;;;21.38;32.87;102209.97;5047959;28;19924;-76
2024/01/07 07:03:53;;;;;;;;;;;;;;;21.38;32.85;102215.38;5046281;28;19953;-76
2024/01/07 07:06:20;;;;;;;;;;;;;;;21.38;32.65;102215.38;5046524;28;20515;-76
2024/01/07 07:08:45;;;;;;;;;;;;;;;21.37;32.77;102219.94;5044409;28;19914;-76
2024/01/07 07:11:11;;;;;;;;;;;;;;;21.39;32.92;102217.91;5034470;28;19913;-76
2024/01/07 07:13:37;;;;;;;;;;;;;;;21.39;33.00;102217.06;5058760;28;19913;-76
2024/01/07 07:16:02;;;;;;;;;;;;;;;21.39;32.91;102220.63;5056391;28;19962;-76
2024/01/07 07:18:27;;;;;;;;;;;;;;;21.40;32.92;102227.72;5042687;28;19917;-76
2024/01/07 07:20:52;;;;;;;;;;;;;;;21.42;32.92;102233.84;5045188;28;19917;-76
2024/01/07 07:23:18;;;;;;;;;;;;;;;21.43;32.77;102229.28;5045614;28;19943;-76
2024/01/07 07:25:43;;;;;;;;;;;;;;;21.44;32.84;102230.97;5039030;28;19925;-77
2024/01/07 07:28:08;;;;;;;;;;;;;;;21.42;32.87;102233.00;5042196;28;19921;-77
2024/01/07 07:30:33;;;;;;;;;;;;;;;21.41;32.81;102258.38;5052423;28;19921;-75
2024/01/07 07:32:58;;;;;;;;;;;;;;;21.36;33.18;102263.34;5042551;28;19940;-75
2024/01/07 07:35:24;;;;;;;;;;;;;;;21.34;33.08;102262.69;5040000;28;19913;-74
2024/01/07 07:37:49;;;;;;;;;;;;;;;21.28;33.08;102265.94;5041459;28;19914;-75
2024/01/07 07:40:14;;;;;;;;;;;;;;;21.21;33.50;102274.66;5042987;28;19928;-75
2024/01/07 07:42:39;;;;;;;;;;;;;;;21.19;33.51;102279.38;5038344;28;19921;-75
2024/01/07 07:45:05;;;;;;;;;;;;;;;21.20;33.66;102285.66;5044070;28;19916;-74
2024/01/07 07:47:30;;;;;;;;;;;;;;;21.17;33.42;102292.19;5036023;28;19924;-75
2024/01/07 07:49:55;;;;;;;;;;;;;;;21.16;33.39;102284.25;5045419;28;19921;-74
2024/01/07 07:52:25;;;;;;;;;;;;;;;21.14;33.56;102291.63;5034728;28;19913;-74
2024/01/07 07:54:50;;;;;;;;;;;;;;;21.13;33.88;102296.22;5038613;28;19922;-74
2024/01/07 07:57:15;;;;;;;;;;;;;;;21.15;33.90;102301.44;5039346;28;19925;-73
2024/01/07 07:59:40;;;;;;;;;;;;;;;21.12;33.61;102299.06;5039244;28;19917;-73
2024/01/07 08:02:06;;;;;;;;;;;;;;;21.12;34.22;102302.63;5043238;28;19917;-74
2024/01/07 08:04:31;;;;;;;;;;;;;;;21.13;34.08;102317.84;5045128;28;19920;-73
2024/01/07 08:06:56;;;;;;;;;;;;;;;21.12;33.98;102316.16;5045064;28;19917;-74
2024/01/07 08:09:21;;;;;;;;;;;;;;;21.12;34.19;102323.41;5039525;28;20014;-75
2024/01/07 08:11:46;;;;;;;;;;;;;;;21.13;34.03;102319.69;5042724;28;19917;-75
2024/01/07 08:14:12;;;;;;;;;;;;;;;21.13;34.01;102320.53;5042348;28;19913;-75
2024/01/07 08:16:37;;;;;;;;;;;;;;;21.12;34.30;102329.66;5036504;28;19917;-75
2024/01/07 08:19:02;;;;;;;;;;;;;;;21.14;34.04;102332.22;5044995;28;19921;-74
2024/01/07 08:21:27;;;;;;;;;;;;;;;21.15;34.17;102334.78;5042831;28;19975;-74
2024/01/07 08:23:53;;;;;;;;;;;;;;;21.15;33.99;102334.78;5046294;28;19913;-75
2024/01/07 08:26:19;;;;;;;;;;;;;;;21.17;34.13;102331.94;5035857;28;19922;-75
2024/01/07 08:28:44;;;;;;;;;;;;;;;21.17;34.21;102331.94;5042009;28;19920;-74
2024/01/07 08:31:10;;;;;;;;;;;;;;;21.18;34.30;102347.16;5046177;28;19952;-73
2024/01/07 08:33:35;;;;;;;;;;;;;;;21.22;34.21;102345.84;5043112;28;19912;-72
2024/01/07 08:36:00;;;;;;;;;;;;;;;21.23;33.91;102342.97;5045264;28;19913;-73
2024/01/07 08:38:25;;;;;;;;;;;;;;;21.24;33.92;102351.97;5048258;28;20309;-73
2024/01/07 08:40:52;;;;;;;;;;;;;;;21.26;33.67;102351.81;5050723;28;20361;-74
2024/01/07 08:43:17;;;;;;;;;;;;;;;21.25;33.98;102363.66;5043313;28;19921;-73
2024/01/07 08:45:42;;;;;;;;;;;;;;;21.30;33.97;102361.34;5047829;28;19924;-74
2024/01/07 08:48:08;;;;;;;;;;;;;;;21.30;34.06;102370.31;5045144;28;20423;-74
2024/01/07 08:50:33;;;;;;;;;;;;;;;21.33;34.04;102378.16;5043162;28;19920;-75
2024/01/07 08:52:58;;;;;;;;;;;;;;;21.33;34.07;102380.88;5055052;28;19913;-73
2024/01/07 08:55:23;;;;;;;;;;;;;;;21.34;33.79;102374.44;5057163;28;20448;-75
2024/01/07 08:57:49;;;;;;;;;;;;;;;21.35;34.04;102388.81;5046947;28;19924;-74
2024/01/07 09:00:14;;;;;;;;;;;;;;;21.38;33.90;102396.66;5042591;28;19928;-73
2024/01/07 09:02:40;;;;;;;;;;;;;;;21.39;33.65;102395.63;5048187;28;20416;-73
2024/01/07 09:05:05;;;;;;;;;;;;;;;21.40;33.71;102398.19;5042551;28;19913;-73
2024/01/07 09:07:31;;;;;;;;;;;;;;;21.40;34.02;102394.63;5048533;28;19917;-74
2024/01/07 09:09:59;;;;;;;;;;;;;;;21.42;34.03;102395.34;5052172;28;20432;-74
2024/01/07 09:12:24;;;;;;;;;;;;;;;21.43;33.60;102405.16;5048915;28;19913;-74
2024/01/07 09:14:49;;;;;;;;;;;;;;;21.42;33.63;102415.16;5044428;28;19923;-75
2024/01/07 09:17:17;;;;;;;;;;;;;;;21.43;33.80;102419.53;5042152;28;20247;-75
2024/01/07 09:19:42;;;;;;;;;;;;;;;21.44;33.97;102418.53;5043210;28;19913;-74
2024/01/07 09:22:07;;;;;;;;;;;;;;;21.45;33.78;102420.25;5043749;28;19928;-74
2024/01/07 09:24:32;;;;;;;;;;;;;;;21.49;33.86;102428.06;5048598;28;19916;-74
2024/01/07 09:26:57;;;;;;;;;;;;;;;21.48;33.81;102435.34;5053539;28;19969;-75
2024/01/07 09:29:23;;;;;;;;;;;;;;;21.49;33.41;102444.28;5028955;28;19917;-75
2024/01/07 09:31:48;;;;;;;;;;;;;;;21.52;33.71;102441.31;5037807;28;19921;-76
2024/01/07 09:34:14;;;;;;;;;;;;;;;21.52;33.63;102447.56;5042656;28;20448;-75
2024/01/07 09:36:39;;;;;;;;;;;;;;;21.55;33.73;102457.25;5036888;28;19920;-76
2024/01/07 09:39:06;;;;;;;;;;;;;;;21.58;33.36;102460.53;5040540;28;19913;-75
2024/01/07 09:41:31;;;;;;;;;;;;;;;21.61;33.59;102456.66;5048445;28;19980;-77
2024/01/07 09:43:57;;;;;;;;;;;;;;;21.63;33.37;102460.91;5048682;28;19921;-74
2024/01/07 09:46:22;;;;;;;;;;;;;;;21.67;33.24;102464.19;5042241;28;19913;-75
2024/01/07 09:48:47;;;;;;;;;;;;;;;21.68;33.19;102465.88;5040559;28;19920;-76
2024/01/07 09:51:13;;;;;;;;;;;;;;;21.70;33.19;102462.00;5036153;28;19925;-75
2024/01/07 09:53:38;;;;;;;;;;;;;;;21.73;33.17;102474.41;5039943;28;19913;-76
2024/01/07 09:56:09;;;;;;;;;;;;;;;21.75;32.99;102474.25;5044502;28;19921;-76
2024/01/07 09:58:35;;;;;;;;;;;;;;;21.76;32.97;102478.69;5045018;28;19924;-75
2024/01/07 10:01:00;;;;;;;;;;;;;;;21.75;32.97;102482.38;5046373;28;19925;-74
2024/01/07 10:03:25;;;;;;;;;;;;;;;21.77;33.11;102474.97;5043566;28;19917;-75
2024/01/07 10:05:51;;;;;;;;;;;;;;;21.78;33.03;102487.50;5044158;28;19969;-76
2024/01/07 10:08:17;;;;;;;;;;;;;;;21.80;33.20;102488.22;5039618;28;19984;-74
2024/01/07 10:10:43;;;;;;;;;;;;;;;21.83;32.77;102479.75;5041446;28;19916;-74
2024/01/07 10:13:08;;;;;;;;;;;;;;;21.84;32.83;102490.47;5044874;28;19916;-77
2024/01/07 10:15:33;;;;;;;;;;;;;;;21.86;33.02;102495.72;5023847;28;19928;-75
2024/01/07 10:18:07;;;;;;;;;;;;;;;21.87;32.85;102492.84;5046123;28;19935;-75
2024/01/07 10:20:33;;;;;;;;;;;;;;;21.92;32.66;102487.00;5050025;28;19922;-75
2024/01/07 10:22:58;;;;;;;;;;;;;;;21.93;32.67;102494.97;5038275;28;19916;-75
2024/01/07 10:25:24;;;;;;;;;;;;;;;21.93;32.96;102496.84;5038525;28;19989;-76
2024/01/07 10:27:49;;;;;;;;;;;;;;;21.95;32.90;102508.34;5040984;28;19929;-78
2024/01/07 10:30:15;;;;;;;;;;;;;;;21.95;32.88;102511.91;5039842;28;20325;-76
2024/01/07 10:32:41;;;;;;;;;;;;;;;21.98;32.70;102504.50;5047642;28;19917;-76
2024/01/07 10:35:07;;;;;;;;;;;;;;;22.02;32.53;102503.19;5051500;28;19923;-76
2024/01/07 10:37:32;;;;;;;;;;;;;;;22.06;32.30;102513.59;5049060;28;20020;-76
2024/01/07 10:40:00;;;;;;;;;;;;;;;22.06;32.31;102505.47;5042206;28;20285;-76
2024/01/07 10:42:26;;;;;;;;;;;;;;;22.11;32.48;102508.56;5040382;28;19917;-76
2024/01/07 10:44:51;;;;;;;;;;;;;;;22.17;32.21;102509.84;5041166;28;19951;-76
2024/01/07 10:47:16;;;;;;;;;;;;;;;22.21;32.23;102513.94;5045332;28;19921;-76
2024/01/07 10:49:42;;;;;;;;;;;;;;;22.21;32.43;102516.66;5052007;28;20008;-76
2024/01/07 10:52:08;;;;;;;;;;;;;;;22.30;32.32;102525.72;5048179;28;19953;-76
2024/01/07 10:54:36;;;;;;;;;;;;;;;22.43;32.00;102529.81;5036776;28;19980;-75
2024/01/07 10:57:14;;;;;;;;;;;;;;;22.51;32.04;102534.44;5025354;28;19924;-77
2024/01/07 10:59:39;;;;;;;;;;;;;;;22.51;31.92;102544.44;5042018;28;19913;-75
2024/01/07 11:02:05;;;;;;;;;;;;;;;22.55;31.77;102545.81;5046546;28;19928;-76
2024/01/07 11:04:40;;;;;;;;;;;;;;;22.57;31.72;102541.97;5051101;28;19912;-74
2024/01/07 11:07:10;;;;;;;;;;;;;;;22.59;31.36;102542.66;5050922;28;19970;-75
2024/01/07 11:09:39;;;;;;;;;;;;;;;22.61;31.54;102545.22;5043512;28;19920;-75
2024/01/07 11:12:04;;;;;;;;;;;;;;;22.65;31.55;102541.22;5038310;28;19988;-75
2024/01/07 11:14:51;;;;;;;;;;;;;;;22.69;31.38;102540.75;5036965;28;19913;-75
2024/01/07 11:17:17;;;;;;;;;;;;;;;22.73;31.22;102554.84;5038605;28;20495;-76
2024/01/07 11:19:52;;;;;;;;;;;;;;;22.75;31.15;102547.41;5036737;28;19917;-76
2024/01/07 11:22:29;;;;;;;;;;;;;;;22.74;31.34;102550.28;5048236;28;19922;-74
2024/01/07 11:24:58;;;;;;;;;;;;;;;22.71;31.21;102554.13;5045138;28;19925;-74
2024/01/07 11:27:23;;;;;;;;;;;;;;;22.70;31.08;102556.00;5036039;28;20460;-74
2024/01/07 11:29:56;;;;;;;;;;;;;;;22.73;31.56;102557.56;5032279;28;19913;-74
2024/01/07 11:32:22;;;;;;;;;;;;;;;22.81;31.48;102557.66;5033399;28;19939;-73
2024/01/07 11:34:49;;;;;;;;;;;;;;;22.88;31.70;102556.00;5038571;28;19948;-74
2024/01/07 11:37:14;;;;;;;;;;;;;;;22.85;31.77;102545.47;5047292;28;19913;-75
2024/01/07 11:39:44;;;;;;;;;;;;;;;23.08;31.09;102559.44;5038925;28;19935;-74
2024/01/07 11:42:09;;;;;;;;;;;;;;;23.12;31.32;102549.97;5025833;28;19928;-76
2024/01/07 11:44:36;;;;;;;;;;;;;;;23.17;31.01;102552.22;5043803;28;19913;-77
2024/01/07 11:47:02;;;;;;;;;;;;;;;23.23;30.86;102567.00;5033744;28;19925;-79
2024/01/07 11:49:27;;;;;;;;;;;;;;;23.24;31.28;102560.59;5036008;28;19917;-79
2024/01/07 11:51:52;;;;;;;;;;;;;;;23.28;30.70;102551.97;5042029;28;19920;-78
2024/01/07 11:54:17;;;;;;;;;;;;;;;23.35;30.86;102558.44;5041343;28;19920;-80
2024/01/07 11:56:43;;;;;;;;;;;;;;;23.41;31.22;102555.13;5041318;28;20716;-79
2024/01/07 11:59:08;;;;;;;;;;;;;;;23.47;30.77;102547.34;5044340;28;19917;-78
2024/01/07 12:01:33;;;;;;;;;;;;;;;23.52;30.99;102547.72;5034907;28;20436;-80
2024/01/07 12:03:58;;;;;;;;;;;;;;;23.54;30.32;102554.69;5041700;28;19964;-74
2024/01/07 12:06:24;;;;;;;;;;;;;;;23.55;30.66;102545.53;5044211;28;19954;-76
2024/01/07 12:08:49;;;;;;;;;;;;;;;23.56;30.67;102557.25;5044730;28;20385;-76
2024/01/07 12:11:15;;;;;;;;;;;;;;;23.58;30.95;102550.66;5046025;28;20008;-76
2024/01/07 12:13:40;;;;;;;;;;;;;;;23.58;31.13;102552.53;5035782;28;19921;-76
2024/01/07 12:16:05;;;;;;;;;;;;;;;23.59;30.71;102548.78;5053855;28;19913;-74
2024/01/07 12:18:31;;;;;;;;;;;;;;;23.63;31.14;102555.59;5046439;28;19923;-75
2024/01/07 12:20:57;;;;;;;;;;;;;;;23.66;30.69;102556.16;5046556;28;19921;-74
2024/01/07 12:23:23;;;;;;;;;;;;;;;23.71;30.34;102554.84;5045575;28;19921;-75
2024/01/07 12:25:48;;;;;;;;;;;;;;;23.74;30.38;102559.94;5042793;28;20313;-76
2024/01/07 12:28:13;;;;;;;;;;;;;;;23.77;30.92;102555.03;5057371;28;20267;-78
2024/01/07 12:30:38;;;;;;;;;;;;;;;23.81;30.22;102556.41;5058528;28;19917;-77